Weather at Minneapolis–Saint Paul International Airport / Wold–Chamberlain Field

Public forecast

Using degrees Fahrenheit for public forecast. Weather courtesy of forecast.io.

Current aviation weather report (METAR) for Minneapolis–Saint Paul International Airport / Wold–Chamberlain Field

Retrieved 2021/07/29 05:53 UTC (42 minutes ago):

KMSP 290553Z 33008KT 10SM CLR 27/22 A2987 RMK AO2 SLP109 T02720222 10328 20272 403390217 51031

Aviation forecast (TAF) for Minneapolis–Saint Paul International Airport / Wold–Chamberlain Field

Retrieved 2021/07/29 06:22 UTC (13 minutes ago):

TAF KMSP 290520Z 2906/3012 01009KT P6SM SCT250 FM291700 36010G16KT P6SM SCT250 FM292300 35009KT P6SM SCT250